Time;durP1;ratioP1;P1;durP2;ratioP2;P2;SDS_P1;SDS_P2;PMS_P1;PMS_P2;Temp;Humidity;BMP_temperature;BMP_pressure;BME280_temperature;BME280_humidity;BME280_pressure;Samples;Min_cycle;Max_cycle;Signal;HPM_P1;HPM_P2
2024/01/01 00:00:25;;;;;;;41.15;21.10;;;;;;;4.99;100.00;98866.13;5104678;28;20266;-83
2024/01/01 00:02:50;;;;;;;44.25;21.40;;;;;;;5.27;100.00;98917.31;5087465;28;20028;-80
2024/01/01 00:05:16;;;;;;;42.20;20.70;;;;;;;5.28;100.00;98919.66;5089451;28;20034;-80
2024/01/01 00:07:41;;;;;;;37.30;21.45;;;;;;;5.45;100.00;98953.66;5087523;28;20047;-80
2024/01/01 00:10:07;;;;;;;39.83;20.95;;;;;;;5.13;100.00;98909.88;5075791;28;20028;-81
2024/01/01 00:12:33;;;;;;;41.63;22.65;;;;;;;5.21;100.00;98932.56;5095183;28;20028;-80
2024/01/01 00:14:59;;;;;;;41.20;22.42;;;;;;;5.08;100.00;98899.34;5112679;28;20082;-80
2024/01/01 00:17:25;;;;;;;40.30;21.40;;;;;;;5.08;100.00;98893.09;5103336;28;20039;-80
2024/01/01 00:19:51;;;;;;;36.72;21.00;;;;;;;5.33;100.00;98935.69;5086835;28;20035;-82
2024/01/01 00:22:16;;;;;;;38.65;21.23;;;;;;;5.58;100.00;98951.25;5078868;28;20052;-81
2024/01/01 00:24:41;;;;;;;33.92;19.67;;;;;;;5.36;100.00;98917.69;5077917;28;20032;-82
2024/01/01 00:27:07;;;;;;;39.50;20.05;;;;;;;5.24;100.00;98905.16;5084951;28;20020;-79
2024/01/01 00:29:32;;;;;;;37.38;21.23;;;;;;;5.39;100.00;98932.53;5071293;28;20024;-80
2024/01/01 00:31:58;;;;;;;43.15;21.02;;;;;;;5.23;100.00;98900.09;5077762;28;20511;-81
2024/01/01 00:34:23;;;;;;;40.28;21.08;;;;;;;5.60;100.00;98949.69;5074821;28;20032;-79
2024/01/01 00:36:48;;;;;;;35.85;20.63;;;;;;;5.38;100.00;98937.22;5080872;28;20040;-79
2024/01/01 00:39:14;;;;;;;42.40;21.50;;;;;;;5.05;100.00;98869.25;5088890;28;20028;-79
2024/01/01 00:41:40;;;;;;;36.95;19.90;;;;;;;5.24;100.00;98935.28;5088643;28;20123;-81
2024/01/01 00:44:05;;;;;;;42.10;21.00;;;;;;;5.27;100.00;98936.47;5102664;28;20039;-81
2024/01/01 00:46:31;;;;;;;42.05;21.33;;;;;;;5.12;100.00;98896.63;5093329;28;20025;-82
2024/01/01 00:48:56;;;;;;;39.97;21.15;;;;;;;5.37;100.00;98926.66;5109068;28;20034;-81
2024/01/01 00:51:22;;;;;;;43.75;21.33;;;;;;;5.33;100.00;98916.50;5101094;28;20035;-80
2024/01/01 00:53:47;;;;;;;43.40;23.98;;;;;;;5.44;100.00;98940.34;5098189;28;20032;-80
2024/01/01 00:56:13;;;;;;;42.78;21.88;;;;;;;5.23;100.00;98924.75;5087935;28;20039;-80
2024/01/01 00:58:39;;;;;;;41.92;21.70;;;;;;;5.38;100.00;98961.88;5094865;28;20016;-80
2024/01/01 01:01:04;;;;;;;44.85;23.15;;;;;;;5.16;100.00;98919.28;5073752;28;20030;-79
2024/01/01 01:03:31;;;;;;;42.58;23.13;;;;;;;5.15;100.00;98923.19;5084538;28;20054;-80
2024/01/01 01:05:56;;;;;;;45.03;22.73;;;;;;;5.23;100.00;98943.94;5082077;28;20031;-80
2024/01/01 01:08:22;;;;;;;45.90;22.80;;;;;;;4.88;100.00;98904.47;5073722;28;20065;-79
2024/01/01 01:10:49;;;;;;;43.60;22.55;;;;;;;5.01;100.00;98945.13;5091538;28;20027;-80
2024/01/01 01:13:15;;;;;;;41.78;22.02;;;;;;;4.91;100.00;98935.75;5074800;28;20028;-80
2024/01/01 01:15:40;;;;;;;45.80;22.92;;;;;;;4.90;100.00;98929.50;5080946;28;20078;-80
2024/01/01 01:18:05;;;;;;;44.95;22.50;;;;;;;4.89;100.00;98935.34;5090772;28;20412;-80
2024/01/01 01:20:31;;;;;;;44.95;22.95;;;;;;;4.48;100.00;98880.25;5081296;28;20055;-82
2024/01/01 01:22:56;;;;;;;53.97;25.10;;;;;;;4.26;100.00;98854.09;5079695;28;20090;-79
2024/01/01 01:25:22;;;;;;;83.63;32.00;;;;;;;4.74;100.00;98925.59;5075775;28;20020;-80
2024/01/01 01:27:47;;;;;;;64.07;29.13;;;;;;;4.95;100.00;98952.16;5080516;28;20103;-83
2024/01/01 01:30:12;;;;;;;104.75;35.92;;;;;;;3.86;100.00;98798.59;5090631;28;20027;-81
2024/01/01 01:32:38;;;;;;;72.40;28.73;;;;;;;4.36;100.00;98891.59;5089010;28;20039;-81
2024/01/01 01:35:04;;;;;;;58.80;26.02;;;;;;;4.66;100.00;98907.63;5079185;28;20032;-81
2024/01/01 01:37:29;;;;;;;45.67;22.38;;;;;;;4.69;100.00;98907.63;5090656;28;20032;-80
2024/01/01 01:39:55;;;;;;;43.05;19.45;;;;;;;4.60;100.00;98900.97;5082383;28;20170;-81
2024/01/01 01:42:20;;;;;;;37.53;20.33;;;;;;;4.83;100.00;98904.06;5084073;28;20028;-82
2024/01/01 01:44:46;;;;;;;39.95;20.23;;;;;;;3.93;100.00;98754.09;5072013;28;20488;-82
2024/01/01 01:47:12;;;;;;;40.60;19.45;;;;;;;5.04;100.00;98906.78;5085059;28;20028;-81
2024/01/01 01:49:38;;;;;;;35.63;19.73;;;;;;;5.09;100.00;98900.91;5090354;28;20031;-82
2024/01/01 01:52:05;;;;;;;43.78;21.40;;;;;;;5.23;100.00;98902.84;5089853;28;20036;-83
2024/01/01 01:54:33;;;;;;;39.70;20.58;;;;;;;5.19;100.00;98888.34;5079410;28;20020;-81
2024/01/01 01:56:59;;;;;;;;;;;;;;;5.21;100.00;98910.66;5095200;28;20028;-80
2024/01/01 01:59:25;;;;;;;34.42;18.90;;;;;;;4.41;100.00;98845.47;5092436;28;19915;-81
2024/01/01 02:01:50;;;;;;;34.05;16.92;;;;;;;4.27;100.00;98847.44;5092948;28;20032;-83
2024/01/01 02:04:16;;;;;;;32.05;16.10;;;;;;;4.31;100.00;98868.16;5082620;28;20028;-80
2024/01/01 02:06:42;;;;;;;32.28;17.05;;;;;;;3.82;100.00;98808.75;5087068;28;20024;-80
2024/01/01 02:09:08;;;;;;;28.13;14.98;;;;;;;3.84;100.00;98822.03;5075524;28;20055;-80
2024/01/01 02:11:33;;;;;;;28.27;15.40;;;;;;;4.22;100.00;98872.47;5094480;28;20034;-81
2024/01/01 02:14:08;;;;;;;28.33;16.00;;;;;;;4.02;100.00;98858.38;5095587;28;20381;-81
2024/01/01 02:16:34;;;;;;;30.77;16.02;;;;;;;4.12;100.00;98884.94;5091758;28;20032;-81
2024/01/01 02:18:59;;;;;;;32.92;17.05;;;;;;;3.79;100.00;98839.59;5082727;28;20034;-81
2024/01/01 02:21:25;;;;;;;36.17;17.98;;;;;;;3.69;100.00;98815.75;5080687;28;20053;-80
2024/01/01 02:23:51;;;;;;;33.20;18.05;;;;;;;4.17;100.00;98854.47;5094124;28;20032;-80
2024/01/01 02:26:16;;;;;;;39.10;19.63;;;;;;;4.15;100.00;98826.75;5089295;28;20474;-82
2024/01/01 02:28:42;;;;;;;35.85;18.70;;;;;;;4.44;100.00;98874.03;5093896;28;20027;-80
2024/01/01 02:31:07;;;;;;;31.85;16.40;;;;;;;4.37;100.00;98857.59;5093713;28;20031;-80
2024/01/01 02:33:32;;;;;;;26.27;13.48;;;;;;;3.80;100.00;98785.72;5094397;28;20035;-80
2024/01/01 02:35:58;;;;;;;27.48;14.63;;;;;;;3.82;100.00;98806.00;5081734;28;20095;-80
2024/01/01 02:38:23;;;;;;;27.83;14.15;;;;;;;4.18;100.00;98853.28;5083277;28;20051;-79
2024/01/01 02:40:48;;;;;;;24.30;14.00;;;;;;;3.77;100.00;98795.47;5091697;28;20111;-82
2024/01/01 02:43:14;;;;;;;29.02;14.60;;;;;;;4.17;100.00;98859.94;5083752;28;20077;-81
2024/01/01 02:45:39;;;;;;;29.95;16.27;;;;;;;4.16;100.00;98844.69;5093902;28;20492;-79
2024/01/01 02:48:05;;;;;;;27.17;14.05;;;;;;;3.77;100.00;98805.63;5089848;28;20024;-80
2024/01/01 02:50:31;;;;;;;25.10;14.10;;;;;;;3.82;100.00;98841.53;5077633;28;20115;-79
2024/01/01 02:52:56;;;;;;;26.25;14.10;;;;;;;3.81;100.00;98858.31;5083012;28;20036;-81
2024/01/01 02:55:22;;;;;;;32.97;16.05;;;;;;;3.51;100.00;98862.13;5093736;28;20491;-81
2024/01/01 02:57:47;;;;;;;30.98;18.27;;;;;;;3.40;100.00;98834.00;5086210;28;20040;-82
2024/01/01 03:00:14;;;;;;;32.80;18.23;;;;;;;3.75;100.00;98846.19;5093384;28;20028;-81
2024/01/01 03:02:40;;;;;;;40.60;20.37;;;;;;;3.82;100.00;98868.09;5084374;28;20127;-80
2024/01/01 03:05:06;;;;;;;39.45;19.35;;;;;;;4.06;100.00;98883.75;5089027;28;20071;-81
2024/01/01 03:07:32;;;;;;;35.92;17.98;;;;;;;3.81;100.00;98856.38;5092451;28;20130;-82
2024/01/01 03:09:58;;;;;;;39.15;19.15;;;;;;;3.86;100.00;98850.50;5093044;28;20024;-81
2024/01/01 03:12:23;;;;;;;34.40;17.98;;;;;;;4.04;100.00;98864.22;5084324;28;20438;-81
2024/01/01 03:14:49;;;;;;;41.80;19.52;;;;;;;3.68;100.00;98812.22;5086655;28;20067;-81
2024/01/01 03:17:14;;;;;;;32.55;18.55;;;;;;;3.89;100.00;98838.81;5080991;28;20024;-80
2024/01/01 03:19:40;;;;;;;37.80;18.42;;;;;;;4.10;100.00;98884.53;5086431;28;20024;-80
2024/01/01 03:22:05;;;;;;;35.25;18.10;;;;;;;3.68;100.00;98811.44;5081011;28;20044;-81
2024/01/01 03:24:31;;;;;;;36.47;19.10;;;;;;;3.94;100.00;98849.38;5079652;28;20033;-80
2024/01/01 03:26:56;;;;;;;32.75;16.60;;;;;;;3.98;100.00;98843.91;5084301;28;20034;-80
2024/01/01 03:29:22;;;;;;;30.83;16.65;;;;;;;4.05;100.00;98846.63;5088300;28;20031;-81
2024/01/01 03:31:47;;;;;;;31.90;16.77;;;;;;;4.08;100.00;98824.78;5084824;28;20040;-80
2024/01/01 03:34:12;;;;;;;26.98;14.60;;;;;;;4.27;100.00;98829.09;5087871;28;20048;-80
2024/01/01 03:36:38;;;;;;;34.10;17.20;;;;;;;4.05;100.00;98770.09;5084452;28;20401;-80
2024/01/01 03:39:04;;;;;;;34.63;16.90;;;;;;;4.38;100.00;98812.66;5075273;28;20580;-80
2024/01/01 03:41:29;;;;;;;42.40;19.23;;;;;;;4.24;100.00;98796.25;5092872;28;20400;-81
2024/01/01 03:43:56;;;;;;;43.90;20.80;;;;;;;4.43;100.00;98826.72;5079056;28;20024;-79
2024/01/01 03:46:22;;;;;;;41.00;20.10;;;;;;;4.54;100.00;98828.66;5077387;28;20039;-80
2024/01/01 03:48:48;;;;;;;32.50;16.73;;;;;;;4.35;100.00;98807.97;5085933;28;20028;-81
2024/01/01 03:51:13;;;;;;;27.80;14.50;;;;;;;4.45;100.00;98826.34;5082852;28;20032;-81
2024/01/01 03:53:38;;;;;;;27.60;14.05;;;;;;;4.38;100.00;98807.97;5086857;28;20460;-80
2024/01/01 03:56:04;;;;;;;28.15;15.02;;;;;;;4.65;100.00;98830.22;5092149;28;20449;-81
2024/01/01 03:58:30;;;;;;;27.60;16.27;;;;;;;4.50;100.00;98817.75;5078579;28;20033;-81
2024/01/01 04:00:55;;;;;;;24.38;12.95;;;;;;;4.62;100.00;98830.22;5092796;28;20106;-81
2024/01/01 04:03:20;;;;;;;41.45;20.30;;;;;;;4.63;100.00;98835.31;5092370;28;20028;-84
2024/01/01 04:05:46;;;;;;;36.05;15.75;;;;;;;4.53;100.00;98822.41;5088589;28;20028;-80
2024/01/01 04:08:11;;;;;;;57.10;21.33;;;;;;;3.91;100.00;98759.19;5092964;28;20051;-81
2024/01/01 04:10:37;;;;;;;36.38;18.45;;;;;;;4.05;100.00;98811.88;5073033;28;20409;-83
2024/01/01 04:13:03;;;;;;;32.60;17.65;;;;;;;3.96;100.00;98803.31;5072678;28;20115;-84
2024/01/01 04:15:28;;;;;;;29.27;15.90;;;;;;;3.79;100.00;98787.69;5092258;28;20028;-79
2024/01/01 04:17:54;;;;;;;29.55;16.20;;;;;;;3.59;100.00;98768.13;5093437;28;20030;-80
2024/01/01 04:20:19;;;;;;;26.80;15.18;;;;;;;3.86;100.00;98808.75;5086700;28;20620;-80
2024/01/01 04:22:45;;;;;;;29.67;16.55;;;;;;;3.78;100.00;98826.31;5086780;28;20584;-83
2024/01/01 04:25:11;;;;;;;32.30;15.90;;;;;;;3.67;100.00;98818.88;5073141;28;20036;-79
2024/01/01 04:27:36;;;;;;;59.63;24.52;;;;;;;3.76;100.00;98810.28;5073386;28;20032;-80
2024/01/01 04:30:04;;;;;;;46.88;22.15;;;;;;;3.76;100.00;98795.84;5078208;28;20020;-79
2024/01/01 04:32:29;;;;;;;35.70;18.75;;;;;;;3.59;100.00;98759.16;5095955;28;20035;-81
2024/01/01 04:34:55;;;;;;;36.28;18.75;;;;;;;3.88;100.00;98790.00;5093625;28;20036;-80
2024/01/01 04:37:20;;;;;;;35.22;18.60;;;;;;;4.01;100.00;98813.84;5091953;28;20035;-81
2024/01/01 04:39:46;;;;;;;32.05;16.88;;;;;;;3.80;100.00;98780.25;5091779;28;20023;-80
2024/01/01 04:42:11;;;;;;;32.88;16.65;;;;;;;3.91;100.00;98803.69;5082001;28;20105;-80
2024/01/01 04:44:37;;;;;;;33.20;17.35;;;;;;;3.97;100.00;98815.81;5091296;28;20030;-79
2024/01/01 04:47:02;;;;;;;31.73;16.88;;;;;;;3.88;100.00;98796.25;5091460;28;20492;-80
2024/01/01 04:49:28;;;;;;;33.38;17.42;;;;;;;3.88;100.00;98793.53;5091636;28;20480;-79
2024/01/01 04:51:53;;;;;;;33.05;17.33;;;;;;;3.87;100.00;98796.63;5078478;28;20032;-79
2024/01/01 04:54:19;;;;;;;31.48;16.95;;;;;;;3.92;100.00;98805.22;5091008;28;20026;-81
2024/01/01 04:56:44;;;;;;;32.13;17.40;;;;;;;3.95;100.00;98799.00;5078009;28;20028;-82
2024/01/01 04:59:10;;;;;;;31.73;17.33;;;;;;;4.17;100.00;98824.38;5087844;28;20534;-81
2024/01/01 05:01:35;;;;;;;34.67;17.02;;;;;;;3.83;100.00;98796.66;5084683;28;20028;-80
2024/01/01 05:04:00;;;;;;;29.50;17.63;;;;;;;3.36;100.00;98718.53;5091101;28;20023;-80
2024/01/01 05:06:26;;;;;;;34.80;17.77;;;;;;;3.74;100.00;98771.63;5091639;28;20483;-83
2024/01/01 05:08:51;;;;;;;34.35;17.60;;;;;;;3.76;100.00;98787.66;5077823;28;20073;-81
2024/01/01 05:11:17;;;;;;;31.80;16.23;;;;;;;3.64;100.00;98791.53;5090130;28;20500;-82
2024/01/01 05:13:42;;;;;;;35.95;17.63;;;;;;;3.47;100.00;98773.97;5092317;28;20066;-80
2024/01/01 05:16:09;;;;;;;35.97;18.05;;;;;;;3.68;100.00;98797.78;5091435;28;20511;-80
2024/01/01 05:18:35;;;;;;;35.50;17.10;;;;;;;3.59;100.00;98797.41;5091008;28;20031;-80
2024/01/01 05:21:00;;;;;;;37.13;18.35;;;;;;;3.61;100.00;98814.19;5090789;28;20289;-79
2024/01/01 05:23:25;;;;;;;40.58;19.30;;;;;;;3.38;100.00;98787.19;5090873;28;20028;-80
2024/01/01 05:25:51;;;;;;;37.85;17.67;;;;;;;3.40;100.00;98784.84;5091185;28;20499;-83
2024/01/01 05:28:16;;;;;;;33.30;16.60;;;;;;;3.42;100.00;98785.25;5090840;28;20023;-80
2024/01/01 05:30:42;;;;;;;30.63;14.98;;;;;;;3.26;100.00;98752.03;5077765;28;20025;-80
2024/01/01 05:33:07;;;;;;;29.67;15.60;;;;;;;3.19;100.00;98741.91;5084280;28;20029;-80
2024/01/01 05:35:33;;;;;;;24.60;14.40;;;;;;;3.76;100.00;98817.72;5071112;28;20119;-83
2024/01/01 05:37:58;;;;;;;33.33;15.48;;;;;;;3.83;100.00;98818.50;5086983;28;20460;-81
2024/01/01 05:40:24;;;;;;;31.98;14.60;;;;;;;3.60;100.00;98791.53;5091824;28;20059;-82
2024/01/01 05:42:49;;;;;;;32.67;17.00;;;;;;;3.77;100.00;98811.88;5085623;28;20143;-82
2024/01/01 05:45:15;;;;;;;33.10;18.48;;;;;;;3.53;100.00;98783.34;5070770;28;20021;-80
2024/01/01 05:47:40;;;;;;;33.45;17.92;;;;;;;3.21;100.00;98777.78;5089764;28;20491;-80
2024/01/01 05:50:06;;;;;;;31.33;15.20;;;;;;;3.29;100.00;98811.34;5084890;28;20032;-82
2024/01/01 05:52:31;;;;;;;32.17;16.25;;;;;;;3.01;100.00;98790.22;5077112;28;20115;-79
2024/01/01 05:54:57;;;;;;;36.35;18.42;;;;;;;3.20;100.00;98839.00;5078146;28;20021;-80
2024/01/01 05:57:22;;;;;;;28.85;15.32;;;;;;;2.45;100.00;98730.69;5070517;28;20036;-80
2024/01/01 05:59:47;;;;;;;28.70;14.60;;;;;;;2.79;100.00;98800.22;5082844;28;20035;-80
2024/01/01 06:02:13;;;;;;;27.27;14.02;;;;;;;2.58;100.00;98786.47;5090437;28;20113;-83
2024/01/01 06:04:38;;;;;;;27.00;14.45;;;;;;;2.42;100.00;98805.06;5090928;28;20028;-81
2024/01/01 06:07:04;;;;;;;38.15;19.55;;;;;;;2.25;100.00;98800.28;5078405;28;20428;-81
2024/01/01 06:09:29;;;;;;;33.35;17.50;;;;;;;2.10;100.00;98763.97;5078244;28;20033;-81
2024/01/01 06:11:55;;;;;;;34.63;16.75;;;;;;;2.31;100.00;98772.28;5083817;28;20499;-81
2024/01/01 06:14:20;;;;;;;35.53;18.65;;;;;;;2.45;100.00;98796.91;5070783;28;20119;-80
2024/01/01 06:16:46;;;;;;;32.47;17.73;;;;;;;2.39;100.00;98786.75;5089457;28;20032;-80
2024/01/01 06:19:12;;;;;;;36.00;18.40;;;;;;;2.81;100.00;98824.41;5090844;28;20020;-81
2024/01/01 06:21:38;;;;;;;32.33;17.48;;;;;;;2.82;100.00;98809.59;5091424;28;20048;-81
2024/01/01 06:24:04;;;;;;;34.78;16.10;;;;;;;2.93;100.00;98807.69;5091923;28;20051;-80
2024/01/01 06:26:29;;;;;;;31.50;15.38;;;;;;;2.83;100.00;98795.56;5087060;28;20029;-80
2024/01/01 06:28:54;;;;;;;33.28;16.88;;;;;;;3.07;100.00;98798.81;5082513;28;20499;-81
2024/01/01 06:31:20;;;;;;;34.17;16.00;;;;;;;3.20;100.00;98811.72;5079425;28;20100;-83
2024/01/01 06:33:46;;;;;;;31.80;16.05;;;;;;;3.22;100.00;98795.72;5089036;28;20016;-80
2024/01/01 06:36:11;;;;;;;33.53;16.17;;;;;;;3.20;100.00;98794.53;5086459;28;20100;-81
2024/01/01 06:38:36;;;;;;;31.30;16.00;;;;;;;3.15;100.00;98784.78;5082555;28;20407;-80
2024/01/01 06:41:02;;;;;;;29.90;15.80;;;;;;;2.99;100.00;98737.16;5072720;28;20481;-81
2024/01/01 06:43:28;;;;;;;32.97;16.88;;;;;;;3.30;100.00;98768.44;5074764;28;20115;-82
2024/01/01 06:45:53;;;;;;;30.70;15.98;;;;;;;3.57;100.00;98786.84;5077511;28;20484;-81
2024/01/01 06:48:19;;;;;;;30.35;15.98;;;;;;;3.79;100.00;98786.88;5094885;28;20036;-81
2024/01/01 06:50:44;;;;;;;29.98;15.32;;;;;;;3.92;100.00;98798.97;5095240;28;20032;-80
2024/01/01 06:53:10;;;;;;;26.38;14.38;;;;;;;3.94;100.00;98800.16;5095177;28;20389;-79
2024/01/01 06:55:35;;;;;;;28.98;15.15;;;;;;;3.80;100.00;98781.00;5088033;28;20495;-80
2024/01/01 06:58:01;;;;;;;30.13;14.10;;;;;;;3.66;100.00;98759.16;5093589;28;20024;-84
2024/01/01 07:00:26;;;;;;;26.45;13.95;;;;;;;3.77;100.00;98754.47;5093396;28;20123;-79
2024/01/01 07:02:51;;;;;;;29.38;14.48;;;;;;;4.01;100.00;98764.63;5083063;28;20131;-81
2024/01/01 07:05:17;;;;;;;34.78;15.50;;;;;;;4.47;100.00;98796.63;5069280;28;20036;-81
2024/01/01 07:07:42;;;;;;;279.75;137.68;;;;;;;4.57;100.00;98784.91;5085766;28;20411;-80
2024/01/01 07:10:08;;;;;;;132.52;72.60;;;;;;;4.47;100.00;98718.06;5076261;28;20027;-80
2024/01/01 07:12:34;;;;;;;56.85;33.92;;;;;;;5.02;100.00;98774.19;5073378;28;20090;-82
2024/01/01 07:15:01;;;;;;;101.55;48.08;;;;;;;5.26;100.00;98770.56;5090991;28;20452;-81
2024/01/01 07:17:27;;;;;;;229.45;85.13;;;;;;;5.38;100.00;98745.44;5093675;28;20086;-82
2024/01/01 07:19:52;;;;;;;;;;;;;;;6.01;100.00;98814.78;5089092;28;20021;-82
2024/01/01 07:22:17;;;;;;;;;;;;;;;6.14;100.00;98818.59;5079277;28;19935;-81
2024/01/01 07:24:43;;;;;;;;;;;;;;;6.33;100.00;98812.53;5093394;28;19977;-80
2024/01/01 07:27:08;;;;;;;;;;;;;;;6.48;100.00;98811.25;5082015;28;19960;-80
2024/01/01 07:29:33;;;;;;;;;;;;;;;6.51;100.00;98815.91;5091975;28;19920;-81
2024/01/01 07:31:59;;;;;;;;;;;;;;;6.49;100.00;98815.56;5093398;28;20011;-82
2024/01/01 07:34:25;;;;;;;;;;;;;;;6.61;100.00;98808.00;5080203;28;19916;-81
2024/01/01 07:36:50;;;;;;;;;;;;;;;6.62;100.00;98799.34;5093163;28;20003;-80
2024/01/01 07:39:19;;;;;;;;;;;;;;;6.57;100.00;98796.28;5090523;28;19928;-82
2024/01/01 07:41:47;;;;;;;;;;;;;;;6.78;100.00;98796.03;5074527;28;19916;-82
2024/01/01 07:44:13;;;;;;;;;;;;;;;6.77;100.00;98794.47;5090308;28;19916;-79
2024/01/01 07:46:39;;;;;;;;;;;;;;;6.85;100.00;98795.97;5083047;28;19912;-80
2024/01/01 07:49:05;;;;;;;;;;;;;;;6.96;100.00;98793.88;5083228;28;19921;-81
2024/01/01 07:51:31;;;;;;;;;;;;;;;7.10;100.00;98796.47;5086936;28;19919;-79
2024/01/01 07:53:56;;;;;;;;;;;;;;;7.16;100.00;98794.84;5089356;28;19916;-79
2024/01/01 07:56:21;;;;;;;;;;;;;;;7.27;100.00;98781.72;5090182;28;20314;-79
2024/01/01 07:58:47;;;;;;;;;;;;;;;7.33;100.00;98785.59;5079180;28;19912;-79
2024/01/01 08:01:15;;;;;;;;;;;;;;;7.42;100.00;98785.06;5081160;28;19935;-79
2024/01/01 08:03:41;;;;;;;;;;;;;;;7.55;99.64;98793.53;5091698;28;19916;-79
2024/01/01 08:06:06;;;;;;;;;;;;;;;7.73;99.44;98800.34;5094054;28;19919;-81
2024/01/01 08:08:31;;;;;;;;;;;;;;;7.85;97.97;98798.22;5093134;28;20422;-81
2024/01/01 08:10:56;;;;;;;;;;;;;;;7.94;96.91;98799.25;5091958;28;19916;-80
2024/01/01 08:13:22;;;;;;;;;;;;;;;8.03;97.79;98802.25;5089355;28;19923;-83
2024/01/01 08:15:47;;;;;;;;;;;;;;;8.06;98.04;98795.16;5090675;28;19919;-81
2024/01/01 08:18:12;;;;;;;;;;;;;;;8.13;95.46;98795.81;5092194;28;19912;-81
2024/01/01 08:20:38;;;;;;;;;;;;;;;8.36;95.44;98791.53;5088856;28;20395;-80
2024/01/01 08:23:03;;;;;;;;;;;;;;;8.50;95.00;98794.81;5113798;28;19920;-80
2024/01/01 08:25:28;;;;;;;;;;;;;;;8.64;93.83;98782.78;5099169;28;20004;-80
2024/01/01 08:27:53;;;;;;;;;;;;;;;8.74;93.79;98792.06;5095780;28;19920;-82
2024/01/01 08:30:19;;;;;;;;;;;;;;;8.87;93.84;98799.25;5102169;28;19925;-80
2024/01/01 08:32:44;;;;;;;;;;;;;;;8.97;92.46;98803.81;5105432;28;19976;-80
2024/01/01 08:35:09;;;;;;;;;;;;;;;9.07;92.56;98806.75;5101070;28;19916;-84
2024/01/01 08:37:35;;;;;;;;;;;;;;;9.18;90.78;98801.81;5111434;28;20408;-81
2024/01/01 08:40:00;;;;;;;;;;;;;;;9.27;89.64;98802.03;5093445;28;19916;-80
2024/01/01 08:42:26;;;;;;;;;;;;;;;9.39;88.19;98806.91;5088694;28;19939;-81
2024/01/01 08:44:51;;;;;;;;;;;;;;;9.49;86.22;98816.94;5088202;28;19912;-82
2024/01/01 08:47:16;;;;;;;;;;;;;;;9.74;86.24;98811.66;5088363;28;19922;-81
2024/01/01 08:49:42;;;;;;;;;;;;;;;9.92;85.27;98802.97;5094663;28;20355;-81
2024/01/01 08:52:07;;;;;;;;;;;;;;;10.05;83.93;98795.56;5094686;28;19908;-80
2024/01/01 08:54:32;;;;;;;;;;;;;;;10.14;82.83;98795.75;5087408;28;19915;-82
2024/01/01 08:56:58;;;;;;;;;;;;;;;10.28;79.70;98794.66;5074998;28;19965;-81
2024/01/01 08:59:23;;;;;;;;;;;;;;;10.45;78.39;98793.44;5088050;28;19926;-81
2024/01/01 09:01:48;;;;;;;;;;;;;;;10.73;79.19;98791.16;5088504;28;19950;-81
2024/01/01 09:04:14;;;;;;;;;;;;;;;11.03;76.08;98772.13;5080884;28;20319;-81
2024/01/01 09:06:39;;;;;;;;;;;;;;;11.26;75.52;98773.09;5094337;28;20389;-81
2024/01/01 09:09:05;;;;;;;;;;;;;;;11.23;73.16;98768.44;5094454;28;19920;-82
2024/01/01 09:11:30;;;;;;;;;;;;;;;11.52;70.93;98774.66;5107087;28;19922;-81
2024/01/01 09:13:55;;;;;;;;;;;;;;;11.80;70.65;98767.53;5113086;28;20318;-81
2024/01/01 09:16:22;;;;;;;21.23;13.47;;;;;;;11.87;72.33;98730.56;5093745;28;20404;-83
2024/01/01 09:18:47;;;;;;;18.27;10.43;;;;;;;12.12;69.34;98745.13;5094428;28;20028;-81
2024/01/01 09:21:16;;;;;;;19.70;11.30;;;;;;;12.58;68.40;98759.44;5111735;28;20055;-84
2024/01/01 09:23:41;;;;;;;16.67;10.50;;;;;;;12.45;66.96;98678.34;5112153;28;20082;-83
2024/01/01 09:26:09;;;;;;;15.63;10.35;;;;;;;12.89;64.86;98704.09;5090242;28;20319;-81
2024/01/01 09:28:35;;;;;;;17.20;10.25;;;;;;;12.85;65.73;98695.88;5061017;28;20458;-81
2024/01/01 09:31:00;;;;;;;21.98;11.38;;;;;;;12.88;62.77;98695.00;5060700;28;20032;-81
2024/01/01 09:33:26;;;;;;;16.40;10.95;;;;;;;13.14;62.68;98711.53;5061651;28;20054;-81
2024/01/01 09:35:52;;;;;;;20.65;11.35;;;;;;;13.25;61.75;98706.34;5090621;28;20024;-81
2024/01/01 09:38:18;;;;;;;19.35;12.50;;;;;;;13.17;60.61;98716.16;5073988;28;20061;-80
2024/01/01 09:40:44;;;;;;;;;;;;;;;13.41;59.76;98725.53;5090955;28;20028;-81
2024/01/01 09:43:14;;;;;;;;;;;;;;;13.18;60.76;98724.03;5062487;28;19919;-81
2024/01/01 09:45:39;;;;;;;;;;;;;;;13.44;60.01;98716.31;5074003;28;20372;-80
2024/01/01 09:48:05;;;;;;;18.77;12.00;;;;;;;13.21;60.26;98681.50;5072630;28;20374;-81
2024/01/01 09:50:31;;;;;;;20.80;11.38;;;;;;;13.26;59.64;98669.06;5071613;28;20020;-80
2024/01/01 09:53:00;;;;;;;21.92;13.40;;;;;;;13.42;58.74;98677.13;5058931;28;20013;-85
2024/01/01 09:55:26;;;;;;;24.25;15.52;;;;;;;12.88;59.76;98664.50;5056223;28;20104;-82
2024/01/01 09:57:51;;;;;;;39.22;22.50;;;;;;;12.87;61.89;98695.44;5073365;28;20119;-82
2024/01/01 10:00:21;;;;;;;16.80;11.52;;;;;;;13.28;58.64;98677.66;5091653;28;20114;-81
2024/01/01 10:02:47;;;;;;;19.05;12.43;;;;;;;13.31;58.97;98660.91;5074251;28;20377;-81
2024/01/01 10:05:14;;;;;;;28.23;14.98;;;;;;;12.96;60.68;98660.22;5075111;28;20019;-81
2024/01/01 10:07:39;;;;;;;30.65;15.88;;;;;;;12.05;62.94;98606.16;5076204;28;20020;-81
2024/01/01 10:10:05;;;;;;;29.38;16.75;;;;;;;12.28;63.26;98602.16;5072171;28;20031;-84
2024/01/01 10:12:32;;;;;;;27.33;16.05;;;;;;;12.75;61.37;98629.75;5071877;28;20028;-81
2024/01/01 10:14:58;;;;;;;27.60;16.52;;;;;;;13.29;61.17;98673.69;5084667;28;20037;-84
2024/01/01 10:17:24;;;;;;;26.98;14.98;;;;;;;13.41;58.70;98636.72;5084828;28;20109;-84
2024/01/01 10:19:55;;;;;;;28.85;16.33;;;;;;;13.55;58.42;98675.03;5077244;28;20085;-81
2024/01/01 10:22:23;;;;;;;25.95;16.10;;;;;;;13.55;58.45;98652.81;5077813;28;20044;-84
2024/01/01 10:24:52;;;;;;;25.05;16.40;;;;;;;13.24;57.81;98582.72;5080522;28;20036;-82
2024/01/01 10:27:20;;;;;;;24.27;14.52;;;;;;;13.20;59.47;98626.47;5094077;28;20036;-83
2024/01/01 10:29:49;;;;;;;21.25;13.25;;;;;;;12.49;61.41;98620.78;5095391;28;20032;-82
2024/01/01 10:32:18;;;;;;;31.10;15.88;;;;;;;12.52;63.60;98659.47;5078163;28;20036;-82
2024/01/01 10:34:47;;;;;;;23.35;13.60;;;;;;;11.34;62.63;98443.28;5081548;28;20008;-82
2024/01/01 10:37:15;;;;;;;22.02;13.02;;;;;;;12.72;61.43;98658.38;5077531;28;20484;-83
2024/01/01 10:39:41;;;;;;;24.20;14.38;;;;;;;12.58;62.57;98660.44;5081560;28;20099;-81
2024/01/01 10:42:09;;;;;;;19.40;12.15;;;;;;;12.84;62.97;98638.13;5079885;28;20480;-81
2024/01/01 10:44:34;;;;;;;22.63;12.52;;;;;;;13.19;61.47;98631.25;5081528;28;20047;-82
2024/01/01 10:47:06;;;;;;;23.20;15.00;;;;;;;13.02;60.41;98553.00;5074845;28;20028;-84
2024/01/01 10:49:36;;;;;;;22.38;11.75;;;;;;;13.36;59.38;98584.59;5064836;28;20121;-81
2024/01/01 10:52:26;;;;;;;19.98;12.15;;;;;;;13.71;59.39;98621.25;5094911;28;20039;-81
2024/01/01 10:55:05;;;;;;;19.65;12.32;;;;;;;13.49;60.06;98613.03;5094531;28;20027;-82
2024/01/01 10:58:11;;;;;;;17.95;10.98;;;;;;;12.90;62.58;98598.25;5076554;28;20044;-80
2024/01/01 11:00:41;;;;;;;18.33;11.52;;;;;;;13.04;61.49;98591.38;5081026;28;20012;-82
2024/01/01 11:03:13;;;;;;;18.85;11.65;;;;;;;13.25;61.47;98601.69;5094143;28;20032;-81
2024/01/01 11:05:38;;;;;;;20.80;11.77;;;;;;;12.81;61.85;98580.78;5069719;28;20032;-80
2024/01/01 11:08:04;;;;;;;17.52;11.57;;;;;;;12.47;63.05;98542.91;5069734;28;20032;-81
2024/01/01 11:10:56;;;;;;;24.00;14.55;;;;;;;12.32;61.76;98508.63;5066191;28;20103;-82
2024/01/01 11:13:27;;;;;;;80.35;45.97;;;;;;;13.15;61.72;98582.66;5092225;28;20052;-81
2024/01/01 11:16:03;;;;;;;28.23;15.52;;;;;;;12.70;60.78;98534.09;5076218;28;20556;-80
2024/01/01 11:18:33;;;;;;;52.40;31.35;;;;;;;12.98;61.11;98574.56;5076444;28;20028;-83
2024/01/01 11:21:01;;;;;;;21.80;13.55;;;;;;;12.59;60.62;98503.25;5076302;28;20048;-81
2024/01/01 11:23:46;;;;;;;25.65;14.75;;;;;;;13.42;58.90;98555.78;5088379;28;20496;-81
2024/01/01 11:26:34;;;;;;;17.05;11.05;;;;;;;12.73;60.39;98522.06;5076136;28;20035;-82